Time;durP1;ratioP1;P1;durP2;ratioP2;P2;SDS_P1;SDS_P2;PMS_P1;PMS_P2;Temp;Humidity;BMP_temperature;BMP_pressure;BME280_temperature;BME280_humidity;BME280_pressure;Samples;Min_cycle;Max_cycle;Signal;HPM_P1;HPM_P2
2021/08/11 04:02:45;;;;;;;25.73;14.77;;;12.60;99.90;;;;;;4894099;29;20708;-71
2021/08/11 04:05:12;;;;;;;26.02;15.10;;;12.60;99.90;;;;;;4897046;29;20200;-71
2021/08/11 04:07:38;;;;;;;26.55;14.27;;;12.60;99.90;;;;;;4896582;29;20263;-70
2021/08/11 04:10:06;;;;;;;28.20;15.85;;;12.60;99.90;;;;;;4897235;29;20212;-72
2021/08/11 04:12:33;;;;;;;34.55;15.65;;;12.60;99.90;;;;;;4877863;29;20239;-71
2021/08/11 04:14:59;;;;;;;31.08;16.45;;;12.60;99.90;;;;;;4878331;29;20621;-70
2021/08/11 04:17:26;;;;;;;31.80;16.55;;;12.60;99.90;;;;;;4878439;29;20795;-69
2021/08/11 04:19:54;;;;;;;34.17;15.98;;;12.60;99.90;;;;;;4877617;29;20219;-70
2021/08/11 04:22:21;;;;;;;34.00;15.02;;;12.70;99.90;;;;;;4868847;29;20239;-70
2021/08/11 04:24:47;;;;;;;28.70;14.82;;;12.70;99.90;;;;;;4866906;29;20550;-71
2021/08/11 04:27:14;;;;;;;29.17;15.65;;;12.70;99.90;;;;;;4878350;29;20207;-71
2021/08/11 04:29:41;;;;;;;28.77;15.90;;;12.70;99.90;;;;;;4878062;29;20271;-71
2021/08/11 04:32:08;;;;;;;32.90;15.88;;;12.80;99.90;;;;;;4878317;29;20284;-71
2021/08/11 04:34:34;;;;;;;36.47;16.40;;;12.80;99.90;;;;;;4878364;29;20227;-72
2021/08/11 04:37:03;;;;;;;33.78;16.48;;;12.80;99.90;;;;;;4882186;29;20737;-72
2021/08/11 04:39:29;;;;;;;29.20;14.95;;;12.80;99.90;;;;;;4882132;29;20572;-71
2021/08/11 04:41:56;;;;;;;37.42;16.25;;;12.80;99.90;;;;;;4882076;29;20231;-71
2021/08/11 04:44:23;;;;;;;23.38;13.27;;;12.80;99.90;;;;;;4882217;29;20252;-71
2021/08/11 04:46:49;;;;;;;28.40;14.98;;;12.90;99.90;;;;;;4881439;29;20219;-71
2021/08/11 04:49:16;;;;;;;30.50;15.57;;;12.90;99.90;;;;;;4881136;29;20268;-71
2021/08/11 04:51:42;;;;;;;31.63;15.27;;;13.00;99.90;;;;;;4882163;29;20483;-71
2021/08/11 04:54:10;;;;;;;31.00;14.40;;;13.00;99.90;;;;;;4881054;29;20276;-71
2021/08/11 04:56:37;;;;;;;24.53;12.47;;;13.10;99.90;;;;;;4881800;29;20272;-71
2021/08/11 04:59:04;;;;;;;25.42;13.75;;;13.10;99.90;;;;;;4882110;29;20868;-72
2021/08/11 05:01:31;;;;;;;25.80;13.07;;;13.10;99.90;;;;;;4881253;29;20235;-71
2021/08/11 05:03:57;;;;;;;23.45;13.60;;;13.20;99.90;;;;;;4880829;29;20930;-71
2021/08/11 05:06:24;;;;;;;21.33;13.27;;;13.20;99.90;;;;;;4881718;29;20279;-72
2021/08/11 05:08:50;;;;;;;21.60;13.07;;;13.30;99.90;;;;;;4880806;29;20464;-71
2021/08/11 05:11:19;;;;;;;25.33;13.70;;;13.40;99.90;;;;;;4874779;29;20541;-71
2021/08/11 05:13:46;;;;;;;20.17;12.60;;;13.40;99.90;;;;;;4872097;29;20464;-70
2021/08/11 05:16:12;;;;;;;20.87;13.80;;;13.50;99.90;;;;;;4881642;29;20816;-71
2021/08/11 05:18:39;;;;;;;17.90;13.30;;;13.60;99.90;;;;;;4880528;29;20468;-71
2021/08/11 05:21:05;;;;;;;25.63;13.10;;;13.70;99.90;;;;;;4881706;29;20492;-72
2021/08/11 05:23:32;;;;;;;16.17;12.20;;;13.80;99.90;;;;;;4880329;29;20464;-71
2021/08/11 05:25:59;;;;;;;17.40;13.13;;;13.90;99.90;;;;;;4880953;29;20488;-71
2021/08/11 05:28:27;;;;;;;19.63;13.87;;;14.00;99.90;;;;;;4880689;29;20464;-72
2021/08/11 05:30:54;;;;;;;15.90;12.47;;;14.20;99.90;;;;;;4880777;29;20488;-71
2021/08/11 05:33:20;;;;;;;15.03;12.00;;;14.30;99.90;;;;;;4879467;29;20460;-73
2021/08/11 05:35:47;;;;;;;15.87;12.80;;;14.40;99.90;;;;;;4880465;29;21063;-73
2021/08/11 05:38:14;;;;;;;12.87;11.50;;;14.60;99.90;;;;;;4880461;29;20507;-72
2021/08/11 05:40:40;;;;;;;13.57;11.83;;;14.70;99.90;;;;;;4880951;29;20579;-73
2021/08/11 05:43:07;;;;;;;12.43;10.70;;;14.80;99.90;;;;;;4880224;29;20464;-72
2021/08/11 05:45:35;;;;;;;13.10;10.93;;;14.80;99.90;;;;;;4878076;29;20473;-72
2021/08/11 05:48:02;;;;;;;12.00;10.80;;;14.80;99.90;;;;;;4879868;29;20479;-72
2021/08/11 05:50:28;;;;;;;11.70;10.57;;;14.70;99.90;;;;;;4880015;29;20502;-71
2021/08/11 05:52:55;;;;;;;12.70;10.90;;;14.70;99.90;;;;;;4879824;29;20476;-71
2021/08/11 05:55:22;;;;;;;10.60;9.50;;;14.70;99.90;;;;;;4880567;29;20870;-71
2021/08/11 05:57:48;;;;;;;11.40;10.30;;;14.70;99.90;;;;;;4881218;29;20580;-71
2021/08/11 06:00:16;;;;;;;11.50;10.40;;;14.70;99.90;;;;;;4880130;29;20532;-71
2021/08/11 06:02:44;;;;;;;11.53;10.37;;;14.70;99.90;;;;;;4879290;29;20468;-71
2021/08/11 06:05:11;;;;;;;12.17;10.90;;;14.80;99.90;;;;;;4879436;29;20464;-72
2021/08/11 06:07:39;;;;;;;11.90;10.73;;;14.90;99.90;;;;;;4879982;29;20960;-72
2021/08/11 06:10:07;;;;;;;9.73;8.87;;;15.40;99.90;;;;;;4870626;29;20464;-72
2021/08/11 06:12:34;;;;;;;8.30;7.50;;;16.30;99.90;;;;;;4880286;29;20472;-73
2021/08/11 06:15:01;;;;;;;8.77;8.17;;;17.20;99.90;;;;;;4880727;29;20484;-72
2021/08/11 06:17:27;;;;;;;7.73;7.13;;;18.00;99.90;;;;;;4880895;29;20468;-71
2021/08/11 06:19:55;;;;;;;6.87;6.37;;;18.70;99.90;;;;;;4879218;29;20480;-72
2021/08/11 06:22:23;;;;;;;7.40;7.00;;;19.20;99.90;;;;;;4880204;29;20494;-71
2021/08/11 06:24:49;;;;;;;7.93;7.30;;;19.70;99.90;;;;;;4880922;29;20922;-72
2021/08/11 06:27:16;;;;;;;6.57;6.17;;;19.90;99.90;;;;;;4879867;29;20468;-71
2021/08/11 06:29:42;;;;;;;6.77;6.40;;;20.60;99.90;;;;;;4880025;29;20942;-73
2021/08/11 06:32:09;;;;;;;6.87;6.57;;;21.30;99.90;;;;;;4879352;29;20576;-72
2021/08/11 06:34:36;;;;;;;7.27;6.77;;;21.70;99.90;;;;;;4878701;29;20502;-72
2021/08/11 06:37:04;;;;;;;6.50;6.20;;;21.90;99.90;;;;;;4876028;29;20475;-72
2021/08/11 06:39:31;;;;;;;7.70;7.17;;;22.30;99.90;;;;;;4879568;29;20467;-72
2021/08/11 06:41:57;;;;;;;7.60;7.00;;;22.40;99.90;;;;;;4881026;29;20490;-73
2021/08/11 06:44:24;;;;;;;6.97;6.67;;;22.60;99.90;;;;;;4879925;29;20473;-72
2021/08/11 06:46:51;;;;;;;6.97;6.57;;;22.70;99.90;;;;;;4879679;29;20473;-69
2021/08/11 06:49:17;;;;;;;6.27;5.97;;;23.20;99.90;;;;;;4879659;29;20472;-69
2021/08/11 06:51:44;;;;;;;7.07;6.67;;;23.10;99.90;;;;;;4879406;29;20492;-74
2021/08/11 06:54:12;;;;;;;7.00;6.40;;;23.10;99.90;;;;;;4879604;29;20471;-69
2021/08/11 06:56:39;;;;;;;7.30;6.70;;;23.40;99.90;;;;;;4879307;29;20468;-69
2021/08/11 06:59:06;;;;;;;6.00;5.70;;;23.40;99.90;;;;;;4879374;29;20470;-69
2021/08/11 07:01:34;;;;;;;6.27;5.97;;;23.10;99.90;;;;;;4878129;29;20581;-70
2021/08/11 07:04:00;;;;;;;6.30;6.00;;;23.10;99.90;;;;;;4880089;29;20988;-70
2021/08/11 07:06:27;;;;;;;6.17;5.80;;;23.70;99.90;;;;;;4879549;29;20466;-71
2021/08/11 07:08:54;;;;;;;6.17;5.87;;;23.90;99.90;;;;;;4878775;29;20471;-71
2021/08/11 07:11:22;;;;;;;6.40;6.13;;;24.10;99.90;;;;;;4875135;29;20490;-71
2021/08/11 07:13:49;;;;;;;5.70;5.40;;;24.10;99.90;;;;;;4878803;29;20540;-71
2021/08/11 07:16:15;;;;;;;6.47;6.17;;;24.70;99.90;;;;;;4879403;29;20492;-72
2021/08/11 07:18:42;;;;;;;6.90;6.50;;;24.90;99.90;;;;;;4878600;29;20830;-71
2021/08/11 07:21:09;;;;;;;5.53;5.33;;;24.90;99.90;;;;;;4879672;29;20574;-70
2021/08/11 07:23:35;;;;;;;5.33;5.07;;;25.00;99.90;;;;;;4877902;29;20589;-70
2021/08/11 07:26:02;;;;;;;5.27;5.07;;;24.90;99.90;;;;;;4879173;29;20582;-70
2021/08/11 07:28:30;;;;;;;5.27;5.07;;;24.70;99.90;;;;;;4878777;29;20471;-70
2021/08/11 07:30:56;;;;;;;5.37;5.07;;;25.00;99.90;;;;;;4877857;29;20499;-71
2021/08/11 07:33:24;;;;;;;6.13;5.73;;;25.30;99.90;;;;;;4877147;29;20470;-70
2021/08/11 07:35:51;;;;;;;6.50;6.10;;;25.20;99.90;;;;;;4875207;29;20802;-70
2021/08/11 07:38:18;;;;;;;5.40;5.10;;;24.80;99.90;;;;;;4877127;29;20472;-70
2021/08/11 07:40:45;;;;;;;5.57;5.27;;;24.00;99.90;;;;;;4878240;29;20481;-70
2021/08/11 07:43:12;;;;;;;6.13;5.27;;;23.50;99.90;;;;;;4877407;29;20478;-71
2021/08/11 07:45:40;;;;;;;6.03;5.60;;;22.90;99.90;;;;;;4878004;29;20960;-69
2021/08/11 07:48:07;;;;;;;5.70;5.33;;;22.10;99.90;;;;;;4877622;29;21043;-69
2021/08/11 07:50:38;;;;;;;6.10;5.37;;;21.80;99.90;;;;;;4878419;29;20480;-68
2021/08/11 07:53:05;;;;;;;5.67;5.37;;;21.80;99.90;;;;;;4878735;29;20464;-68
2021/08/11 07:55:32;;;;;;;6.00;5.60;;;21.90;99.90;;;;;;4874970;29;20850;-69
2021/08/11 07:57:59;;;;;;;6.37;5.87;;;21.90;99.90;;;;;;4876417;29;20476;-70
2021/08/11 08:00:26;;;;;;;5.70;5.30;;;21.80;99.90;;;;;;4877835;29;20556;-69
2021/08/11 08:02:54;;;;;;;5.80;5.30;;;21.70;99.90;;;;;;4876254;29;20479;-68
2021/08/11 08:05:21;;;;;;;5.07;4.77;;;21.80;99.90;;;;;;4872179;29;20472;-69
2021/08/11 08:07:48;;;;;;;4.23;3.90;;;21.50;99.90;;;;;;4878978;29;20506;-69
2021/08/11 08:10:15;;;;;;;4.60;4.20;;;21.40;99.90;;;;;;4877725;29;20468;-69
2021/08/11 08:12:43;;;;;;;5.00;4.70;;;21.20;99.90;;;;;;4878303;29;20472;-68
2021/08/11 08:15:11;;;;;;;5.77;5.27;;;21.10;99.90;;;;;;4877209;29;20492;-69
2021/08/11 08:17:38;;;;;;;5.33;4.93;;;21.00;99.90;;;;;;4875321;29;20599;-69
2021/08/11 08:20:07;;;;;;;5.03;4.73;;;20.70;99.90;;;;;;4878237;29;20541;-69
2021/08/11 08:22:34;;;;;;;5.07;4.67;;;20.70;99.90;;;;;;4876861;29;20799;-68
2021/08/11 08:25:01;;;;;;;5.00;4.60;;;20.80;99.90;;;;;;4874400;29;20499;-68
2021/08/11 08:27:28;;;;;;;5.37;5.07;;;21.10;99.90;;;;;;4877975;29;20887;-69
2021/08/11 08:29:57;;;;;;;5.03;4.40;;;21.20;99.90;;;;;;4878171;29;20480;-69
2021/08/11 08:32:26;;;;;;;4.60;4.40;;;21.30;99.90;;;;;;4877796;29;20945;-69
2021/08/11 08:34:53;;;;;;;4.93;4.63;;;21.40;99.90;;;;;;4872724;29;20475;-68
2021/08/11 08:37:28;;;;;;;5.10;4.70;;;21.50;99.90;;;;;;4875776;29;20495;-69
2021/08/11 08:39:55;;;;;;;4.63;4.30;;;21.70;99.90;;;;;;4876972;29;20475;-71
2021/08/11 08:42:22;;;;;;;4.10;3.90;;;22.00;99.90;;;;;;4878113;29;20567;-71
2021/08/11 08:44:48;;;;;;;5.00;4.70;;;22.00;99.90;;;;;;4877596;29;20472;-71
2021/08/11 08:47:17;;;;;;;5.40;5.10;;;21.90;99.90;;;;;;4876432;29;20503;-71
2021/08/11 08:49:45;;;;;;;4.93;4.50;;;21.90;99.90;;;;;;4876183;29;20563;-70
2021/08/11 08:52:16;;;;;;;4.83;4.53;;;21.90;99.90;;;;;;4877472;29;20500;-70
2021/08/11 08:54:45;;;;;;;4.93;4.60;;;21.70;99.90;;;;;;4874008;29;20586;-70
2021/08/11 08:57:12;;;;;;;5.60;5.20;;;21.40;99.90;;;;;;4878022;29;20460;-70
2021/08/11 08:59:42;;;;;;;5.60;5.30;;;21.10;99.90;;;;;;4877239;29;20516;-70
2021/08/11 09:02:10;;;;;;;5.73;4.83;;;20.80;99.90;;;;;;4876517;29;20527;-70
2021/08/11 09:04:36;;;;;;;5.70;5.40;;;20.50;99.90;;;;;;4875680;29;20476;-70
2021/08/11 09:07:06;;;;;;;5.70;5.30;;;20.50;99.90;;;;;;4877548;29;20809;-70
2021/08/11 09:09:38;;;;;;;6.50;5.37;;;20.40;99.90;;;;;;4877086;29;20468;-71
2021/08/11 09:12:14;;;;;;;5.63;5.17;;;20.30;99.90;;;;;;4864868;29;20481;-70
2021/08/11 09:14:45;;;;;;;7.50;5.33;;;20.20;99.90;;;;;;4872111;29;20507;-70
2021/08/11 09:17:12;;;;;;;5.20;4.73;;;20.20;99.90;;;;;;4876446;29;20611;-70
2021/08/11 09:19:41;;;;;;;5.30;4.87;;;20.20;99.90;;;;;;4877635;29;20464;-70
2021/08/11 09:22:10;;;;;;;4.67;4.37;;;20.30;99.90;;;;;;4878968;29;21031;-70
2021/08/11 09:24:38;;;;;;;6.73;4.67;;;20.30;99.90;;;;;;4879924;29;20475;-70
2021/08/11 09:27:23;;;;;;;5.20;4.80;;;20.40;99.90;;;;;;4880588;29;20463;-70
2021/08/11 09:30:07;;;;;;;5.40;5.07;;;20.50;99.90;;;;;;4878077;29;20559;-70
2021/08/11 09:32:48;;;;;;;6.00;5.57;;;20.70;99.90;;;;;;4880560;29;20952;-69
2021/08/11 09:35:15;;;;;;;5.67;5.17;;;20.80;99.90;;;;;;4879747;29;20584;-68
2021/08/11 09:37:43;;;;;;;4.50;4.10;;;20.80;99.90;;;;;;4879562;29;20476;-69
2021/08/11 09:40:12;;;;;;;7.43;4.83;;;20.80;99.90;;;;;;4881121;29;20464;-68
2021/08/11 09:42:42;;;;;;;4.87;4.57;;;20.90;99.90;;;;;;4878642;29;20582;-68
2021/08/11 09:45:11;;;;;;;4.57;4.17;;;20.90;99.90;;;;;;4881159;29;20808;-70
2021/08/11 09:47:38;;;;;;;4.53;4.33;;;21.10;99.90;;;;;;4879161;29;20975;-70
2021/08/11 09:50:06;;;;;;;4.87;4.57;;;21.10;99.90;;;;;;4880441;29;20968;-71
2021/08/11 09:52:49;;;;;;;5.17;4.77;;;21.00;99.90;;;;;;4879779;29;20484;-71
2021/08/11 09:55:17;;;;;;;4.80;4.60;;;21.00;99.90;;;;;;4877414;29;20476;-70
2021/08/11 09:57:45;;;;;;;4.90;4.60;;;20.90;99.90;;;;;;4879165;29;20491;-69
2021/08/11 10:00:14;;;;;;;4.67;4.37;;;20.70;99.90;;;;;;4876279;29;20484;-73
2021/08/11 10:02:41;;;;;;;4.87;4.57;;;20.40;99.90;;;;;;4877657;29;20540;-69
2021/08/11 10:05:10;;;;;;;5.30;4.80;;;20.40;99.90;;;;;;4878282;29;20483;-70
2021/08/11 10:07:37;;;;;;;4.20;4.00;;;20.50;99.90;;;;;;4879590;29;20476;-70
2021/08/11 10:10:06;;;;;;;4.53;4.33;;;20.50;99.90;;;;;;4883416;29;20468;-72
2021/08/11 10:12:34;;;;;;;5.23;4.73;;;20.60;99.90;;;;;;4877515;29;20938;-70
2021/08/11 10:15:06;;;;;;;4.10;4.00;;;20.70;99.90;;;;;;4871852;29;20483;-71
2021/08/11 10:17:34;;;;;;;4.80;4.40;;;20.70;99.90;;;;;;4879424;29;21027;-71
2021/08/11 10:20:04;;;;;;;5.33;4.83;;;20.60;99.90;;;;;;4879921;29;20825;-73
2021/08/11 10:22:31;;;;;;;4.10;4.00;;;20.60;99.90;;;;;;4879319;29;20488;-71
2021/08/11 10:24:58;;;;;;;4.50;4.33;;;20.50;99.90;;;;;;4878836;29;20938;-72
2021/08/11 10:27:25;;;;;;;4.20;3.90;;;20.50;99.90;;;;;;4879442;29;20469;-71
2021/08/11 10:29:53;;;;;;;4.40;4.13;;;20.50;99.90;;;;;;4879075;29;20953;-71
2021/08/11 10:32:22;;;;;;;4.30;4.10;;;20.60;99.90;;;;;;4879360;29;20491;-70
2021/08/11 10:34:49;;;;;;;3.17;3.07;;;20.70;99.90;;;;;;4877533;29;20938;-70
2021/08/11 10:37:17;;;;;;;3.97;3.67;;;20.70;99.90;;;;;;4872568;29;20862;-71
2021/08/11 10:39:44;;;;;;;3.67;3.57;;;20.80;99.90;;;;;;4879618;29;21002;-71
2021/08/11 10:42:14;;;;;;;3.50;3.37;;;20.90;99.90;;;;;;4878951;29;20905;-70
2021/08/11 10:44:42;;;;;;;3.13;3.07;;;20.90;99.90;;;;;;4879777;29;20468;-71
2021/08/11 10:47:11;;;;;;;4.97;3.47;;;20.90;99.90;;;;;;4878484;29;20476;-71
2021/08/11 10:49:53;;;;;;;3.33;3.23;;;20.90;99.90;;;;;;4879969;29;20464;-72
2021/08/11 10:52:20;;;;;;;3.93;3.73;;;20.90;99.90;;;;;;4878793;29;20548;-71
2021/08/11 10:54:52;;;;;;;3.80;3.50;;;20.90;99.90;;;;;;4878068;29;20852;-73
2021/08/11 10:57:45;;;;;;;3.67;3.47;;;20.80;99.90;;;;;;4877157;29;20563;-72
2021/08/11 11:00:28;;;;;;;3.90;3.60;;;20.90;99.90;;;;;;4879817;29;20559;-72
2021/08/11 11:02:55;;;;;;;3.30;3.20;;;21.10;99.90;;;;;;4876448;29;20524;-71
2021/08/11 11:06:04;;;;;;;3.30;3.10;;;21.00;99.90;;;;;;4877257;29;20837;-72
2021/08/11 11:08:37;;;;;;;3.43;3.33;;;21.10;99.90;;;;;;4875803;29;20495;-73
2021/08/11 11:11:45;;;;;;;3.20;3.00;;;21.20;99.90;;;;;;4875220;29;20497;-71
2021/08/11 11:14:52;;;;;;;3.80;3.70;;;21.40;99.90;;;;;;4876573;29;20551;-72
2021/08/11 11:17:20;;;;;;;3.33;3.23;;;21.40;99.90;;;;;;4877984;29;20492;-72
2021/08/11 11:20:32;;;;;;;3.63;3.47;;;21.40;99.90;;;;;;4877925;29;20890;-72
2021/08/11 11:23:00;;;;;;;3.20;3.10;;;21.50;99.90;;;;;;4875503;29;20487;-72
2021/08/11 11:25:58;;;;;;;3.33;3.13;;;21.50;99.90;;;;;;4878386;29;20469;-72
2021/08/11 11:28:50;;;;;;;3.23;3.10;;;21.60;99.90;;;;;;4878337;29;20468;-72
2021/08/11 11:31:42;;;;;;;3.47;3.37;;;21.80;99.90;;;;;;4878511;29;20810;-72
2021/08/11 11:34:37;;;;;;;3.03;3.00;;;21.90;99.90;;;;;;4874579;29;20984;-72
2021/08/11 11:37:24;;;;;;;4.40;4.20;;;21.90;99.90;;;;;;4877070;29;21265;-72
2021/08/11 11:40:13;;;;;;;3.60;3.50;;;21.90;99.90;;;;;;4877372;29;20812;-72
2021/08/11 11:42:42;;;;;;;2.97;2.80;;;22.00;99.90;;;;;;4877901;29;20535;-72
2021/08/11 11:45:11;;;;;;;3.70;3.50;;;22.00;99.90;;;;;;4877342;29;20575;-72
2021/08/11 11:48:11;;;;;;;3.27;3.10;;;22.10;99.90;;;;;;4877001;29;20539;-71
2021/08/11 11:50:48;;;;;;;4.77;3.37;;;22.30;99.90;;;;;;4877986;29;20495;-71
2021/08/11 11:53:29;;;;;;;2.97;2.97;;;22.30;99.90;;;;;;4877744;29;20502;-72
2021/08/11 11:55:56;;;;;;;3.00;2.90;;;22.40;99.90;;;;;;4878366;29;20504;-73
2021/08/11 11:58:25;;;;;;;3.30;3.20;;;22.60;99.90;;;;;;4878350;29;20956;-73
2021/08/11 12:01:01;;;;;;;3.23;3.13;;;22.70;99.90;;;;;;4874153;29;20894;-73
2021/08/11 12:03:35;;;;;;;3.10;3.00;;;22.90;99.90;;;;;;4875696;29;20528;-72
2021/08/11 12:06:01;;;;;;;3.03;2.93;;;22.90;99.90;;;;;;4871257;29;20524;-72
2021/08/11 12:08:28;;;;;;;3.17;3.17;;;22.90;99.90;;;;;;4875620;29;20492;-72
2021/08/11 12:11:03;;;;;;;3.00;2.90;;;23.00;99.90;;;;;;4860003;29;20493;-73
2021/08/11 12:13:47;;;;;;;2.50;2.40;;;23.20;99.90;;;;;;4872809;29;20468;-73
2021/08/11 12:16:15;;;;;;;3.60;3.40;;;23.20;99.90;;;;;;4870429;29;20488;-73
2021/08/11 12:18:45;;;;;;;3.70;3.50;;;23.20;99.90;;;;;;4877482;29;20472;-73
2021/08/11 12:21:12;;;;;;;3.40;3.20;;;23.10;99.90;;;;;;4876409;29;20527;-72
2021/08/11 12:23:41;;;;;;;3.10;3.00;;;23.10;99.90;;;;;;4874840;29;20510;-73
2021/08/11 12:26:12;;;;;;;3.47;3.37;;;23.10;99.90;;;;;;4877956;29;20465;-72
2021/08/11 12:28:46;;;;;;;3.90;3.70;;;22.80;99.90;;;;;;4877365;29;20472;-72
2021/08/11 12:31:16;;;;;;;3.10;2.90;;;22.80;99.90;;;;;;4877488;29;20500;-72
2021/08/11 12:33:45;;;;;;;3.10;3.10;;;22.80;99.90;;;;;;4877790;29;20568;-72
2021/08/11 12:36:17;;;;;;;2.90;2.90;;;22.90;99.90;;;;;;4869040;29;20492;-71
2021/08/11 12:38:57;;;;;;;3.53;3.43;;;23.00;99.90;;;;;;4875412;29;20563;-73
2021/08/11 12:41:25;;;;;;;3.43;3.33;;;23.00;99.90;;;;;;4877975;29;20499;-72
2021/08/11 12:43:55;;;;;;;3.40;3.30;;;23.20;99.90;;;;;;4876315;29;20476;-72
2021/08/11 12:46:40;;;;;;;3.07;2.97;;;23.40;99.90;;;;;;4876021;29;20580;-71
2021/08/11 12:49:14;;;;;;;3.97;3.67;;;23.40;99.90;;;;;;4877694;29;20460;-72
2021/08/11 12:51:41;;;;;;;3.40;3.10;;;23.50;99.90;;;;;;4876423;29;20484;-72
2021/08/11 12:54:08;;;;;;;3.20;3.17;;;23.50;99.90;;;;;;4876997;29;20465;-73
2021/08/11 12:56:54;;;;;;;3.40;3.30;;;23.50;99.90;;;;;;4879496;29;20487;-72
2021/08/11 12:59:21;;;;;;;3.63;3.43;;;23.50;99.90;;;;;;4869909;29;20555;-72
2021/08/11 13:01:48;;;;;;;3.77;3.57;;;23.50;99.90;;;;;;4880291;29;20502;-72
2021/08/11 13:04:25;;;;;;;3.60;3.50;;;23.40;99.90;;;;;;4880591;29;20464;-72
2021/08/11 13:06:53;;;;;;;3.53;3.43;;;23.50;99.90;;;;;;4879145;29;20920;-72
2021/08/11 13:09:23;;;;;;;3.37;3.27;;;23.50;99.90;;;;;;4880518;29;20467;-71
2021/08/11 13:11:52;;;;;;;4.23;3.97;;;23.40;99.90;;;;;;4870399;29;20607;-72
2021/08/11 13:14:45;;;;;;;3.90;3.80;;;23.30;99.90;;;;;;4878786;29;20476;-71
2021/08/11 13:17:13;;;;;;;3.20;3.00;;;23.10;99.90;;;;;;4880794;29;20948;-71
2021/08/11 13:19:40;;;;;;;3.47;3.37;;;23.00;99.90;;;;;;4880253;29;20483;-72
2021/08/11 13:22:07;;;;;;;3.60;3.50;;;23.00;99.90;;;;;;4879862;29;20495;-72
2021/08/11 13:24:34;;;;;;;3.20;3.10;;;23.10;99.90;;;;;;4879882;29;20575;-72
2021/08/11 13:27:00;;;;;;;4.07;3.87;;;23.00;99.90;;;;;;4879885;29;20468;-70
2021/08/11 13:29:30;;;;;;;3.33;3.13;;;23.20;99.90;;;;;;4881049;29;20551;-71
2021/08/11 13:31:58;;;;;;;3.57;3.47;;;23.20;99.90;;;;;;4879158;29;20996;-71
2021/08/11 13:34:26;;;;;;;2.63;2.53;;;23.40;99.90;;;;;;4879534;29;20480;-70
2021/08/11 13:36:52;;;;;;;3.70;3.60;;;23.70;99.90;;;;;;4879160;29;20815;-71
2021/08/11 13:39:19;;;;;;;2.83;2.83;;;23.80;99.90;;;;;;4879203;29;20468;-71
2021/08/11 13:41:46;;;;;;;3.03;2.83;;;23.70;99.90;;;;;;4879623;29;20491;-70
2021/08/11 13:44:12;;;;;;;2.90;2.80;;;23.70;99.90;;;;;;4880474;29;20475;-71
2021/08/11 13:46:40;;;;;;;3.50;3.23;;;23.80;99.90;;;;;;4879835;29;20471;-71
2021/08/11 13:49:08;;;;;;;3.07;2.97;;;23.80;99.90;;;;;;4877387;29;20558;-72
2021/08/11 13:51:36;;;;;;;3.17;3.07;;;23.70;99.90;;;;;;4877076;29;20909;-70
2021/08/11 13:54:03;;;;;;;2.97;2.77;;;23.50;99.90;;;;;;4878383;29;20961;-71
2021/08/11 13:56:29;;;;;;;3.17;3.07;;;23.50;99.90;;;;;;4877955;29;20476;-72
2021/08/11 13:58:56;;;;;;;3.00;2.80;;;23.50;99.90;;;;;;4878377;29;20484;-73
2021/08/11 14:01:24;;;;;;;3.03;2.93;;;23.60;99.90;;;;;;4879741;29;20504;-71
2021/08/11 14:03:50;;;;;;;3.33;3.23;;;23.60;99.90;;;;;;4877882;29;20475;-70
2021/08/11 14:06:18;;;;;;;3.33;3.20;;;23.60;99.90;;;;;;4879546;29;20834;-69
2021/08/11 14:08:45;;;;;;;2.90;2.80;;;23.70;99.90;;;;;;4878857;29;20524;-70
2021/08/11 14:11:11;;;;;;;3.40;3.10;;;23.90;99.90;;;;;;4879844;29;20488;-73
2021/08/11 14:13:41;;;;;;;3.13;3.03;;;23.90;99.90;;;;;;4872370;29;20564;-73
2021/08/11 14:16:07;;;;;;;3.30;3.20;;;23.90;99.90;;;;;;4878175;29;20565;-70
2021/08/11 14:18:34;;;;;;;3.27;3.17;;;23.90;99.90;;;;;;4877741;29;20500;-70
2021/08/11 14:21:01;;;;;;;3.30;3.20;;;24.00;99.90;;;;;;4878588;29;20500;-71
2021/08/11 14:23:29;;;;;;;3.73;3.53;;;24.20;99.90;;;;;;4875720;29;20533;-72
2021/08/11 14:25:55;;;;;;;3.73;3.63;;;24.30;99.90;;;;;;4878110;29;20464;-72
2021/08/11 14:28:22;;;;;;;3.17;3.07;;;24.30;99.90;;;;;;4879121;29;20529;-73
2021/08/11 14:30:49;;;;;;;3.13;3.03;;;24.30;99.90;;;;;;4877108;29;20847;-71
2021/08/11 14:33:15;;;;;;;3.47;3.27;;;24.30;99.90;;;;;;4875588;29;20810;-71
2021/08/11 14:35:42;;;;;;;2.97;2.87;;;24.10;99.90;;;;;;4875972;29;20866;-73
2021/08/11 14:38:09;;;;;;;2.90;2.80;;;23.90;99.90;;;;;;4878093;29;20488;-73
2021/08/11 14:40:37;;;;;;;3.07;2.97;;;24.00;99.90;;;;;;4878685;29;20977;-71
2021/08/11 14:43:04;;;;;;;2.90;2.83;;;24.00;99.90;;;;;;4879888;29;20475;-71
2021/08/11 14:45:30;;;;;;;2.77;2.63;;;24.00;99.90;;;;;;4899118;29;20844;-69
2021/08/11 14:47:57;;;;;;;3.37;3.27;;;24.10;99.90;;;;;;4878350;29;20475;-70
2021/08/11 14:50:24;;;;;;;3.00;2.90;;;24.00;99.90;;;;;;4878409;29;20465;-70
2021/08/11 14:52:50;;;;;;;3.27;3.07;;;24.00;99.90;;;;;;4876995;29;20476;-71
2021/08/11 14:55:17;;;;;;;3.27;3.17;;;23.90;99.90;;;;;;4877983;29;20481;-70
2021/08/11 14:57:48;;;;;;;3.17;2.93;;;23.80;99.90;;;;;;4878674;29;20484;-71
2021/08/11 15:00:15;;;;;;;2.60;2.50;;;23.80;99.90;;;;;;4878394;29;20468;-70
2021/08/11 15:02:42;;;;;;;2.73;2.63;;;23.70;99.90;;;;;;4879027;29;20981;-70
2021/08/11 15:05:10;;;;;;;3.10;3.00;;;23.60;99.90;;;;;;4878672;29;20468;-72
2021/08/11 15:07:37;;;;;;;2.87;2.77;;;23.50;99.90;;;;;;4878856;29;20483;-70
2021/08/11 15:10:04;;;;;;;3.00;2.90;;;23.60;99.90;;;;;;4878655;29;20483;-70
2021/08/11 15:12:30;;;;;;;3.00;2.90;;;23.70;99.90;;;;;;4878669;29;20547;-71
2021/08/11 15:14:58;;;;;;;3.60;3.40;;;23.80;99.90;;;;;;4878927;29;20539;-71
2021/08/11 15:17:25;;;;;;;2.90;2.80;;;23.90;99.90;;;;;;4878289;29;20984;-69
2021/08/11 15:19:52;;;;;;;2.60;2.57;;;23.90;99.90;;;;;;4876629;29;20472;-69
2021/08/11 15:22:18;;;;;;;2.87;2.77;;;24.10;99.90;;;;;;4878452;29;20488;-70
2021/08/11 15:24:45;;;;;;;2.83;2.77;;;24.10;99.90;;;;;;4870606;29;20469;-71
2021/08/11 15:27:12;;;;;;;2.43;2.33;;;24.20;99.90;;;;;;4878122;29;20468;-70
2021/08/11 15:29:38;;;;;;;2.63;2.63;;;24.20;99.90;;;;;;4878174;29;20464;-70
2021/08/11 15:32:07;;;;;;;2.60;2.50;;;24.20;99.90;;;;;;4878192;29;20484;-71
2021/08/11 15:34:34;;;;;;;2.70;2.63;;;24.20;99.90;;;;;;4878078;29;20841;-70
2021/08/11 15:37:00;;;;;;;2.63;2.50;;;24.20;99.90;;;;;;4878286;29;20807;-70
2021/08/11 15:39:27;;;;;;;2.97;2.77;;;24.20;99.90;;;;;;4877978;29;20460;-71
2021/08/11 15:41:54;;;;;;;2.87;2.80;;;24.10;99.90;;;;;;4878562;29;20513;-71
2021/08/11 15:44:20;;;;;;;3.37;3.10;;;24.10;99.90;;;;;;4877441;29;20857;-72
2021/08/11 15:46:47;;;;;;;2.90;2.90;;;24.10;99.90;;;;;;4877546;29;20491;-71
2021/08/11 15:49:15;;;;;;;3.30;3.17;;;24.10;99.90;;;;;;4877548;29;20472;-70
2021/08/11 15:51:42;;;;;;;3.50;3.07;;;24.20;99.90;;;;;;4878531;29;20484;-71
2021/08/11 15:54:09;;;;;;;3.30;3.20;;;24.20;99.90;;;;;;4877877;29;20483;-70
2021/08/11 15:56:36;;;;;;;3.20;3.00;;;24.10;99.90;;;;;;4878886;29;20507;-72
2021/08/11 15:59:04;;;;;;;2.70;2.60;;;24.10;99.90;;;;;;4879059;29;21017;-72
2021/08/11 16:01:31;;;;;;;3.00;2.80;;;24.00;99.90;;;;;;4874063;29;20590;-72
2021/08/11 16:03:58;;;;;;;2.70;2.70;;;24.00;99.90;;;;;;4877856;29;20473;-72
2021/08/11 16:06:26;;;;;;;2.50;2.50;;;24.10;99.90;;;;;;4878771;29;20468;-72
2021/08/11 16:08:53;;;;;;;3.00;2.90;;;24.10;99.90;;;;;;4878067;29;20476;-72
2021/08/11 16:11:20;;;;;;;2.87;2.77;;;24.10;99.90;;;;;;4878440;29;20548;-72
2021/08/11 16:13:46;;;;;;;3.00;2.90;;;24.00;99.90;;;;;;4877602;29;20810;-72
2021/08/11 16:16:13;;;;;;;2.50;2.50;;;24.00;99.90;;;;;;4878594;29;20527;-71
2021/08/11 16:18:40;;;;;;;3.00;2.90;;;24.00;99.90;;;;;;4877671;29;20827;-72
2021/08/11 16:21:07;;;;;;;2.43;2.43;;;24.00;99.90;;;;;;4877183;29;20517;-72
2021/08/11 16:23:35;;;;;;;2.87;2.77;;;23.90;99.90;;;;;;4877518;29;20475;-72
2021/08/11 16:26:02;;;;;;;2.83;2.73;;;23.90;99.90;;;;;;4877598;29;20907;-72
2021/08/11 16:28:29;;;;;;;2.37;2.27;;;23.90;99.90;;;;;;4878006;29;20464;-72
2021/08/11 16:30:55;;;;;;;2.80;2.80;;;23.90;99.90;;;;;;4882326;29;20491;-72
2021/08/11 16:33:22;;;;;;;3.07;3.00;;;23.80;99.90;;;;;;4883128;29;20469;-72
2021/08/11 16:35:49;;;;;;;3.50;3.40;;;23.80;99.90;;;;;;4882092;29;20662;-71
2021/08/11 16:38:16;;;;;;;3.53;3.40;;;23.70;99.90;;;;;;4882824;29;20883;-72
2021/08/11 16:40:44;;;;;;;3.43;3.33;;;23.70;99.90;;;;;;4884050;29;21214;-72
2021/08/11 16:43:10;;;;;;;3.43;3.13;;;23.70;99.90;;;;;;4883591;29;20468;-72
2021/08/11 16:45:37;;;;;;;3.40;3.30;;;23.70;99.90;;;;;;4883968;29;20496;-72
2021/08/11 16:48:04;;;;;;;3.30;3.20;;;23.60;99.90;;;;;;4881983;29;20543;-72
2021/08/11 16:50:31;;;;;;;3.33;3.20;;;23.70;99.90;;;;;;4881085;29;20852;-72
2021/08/11 16:52:57;;;;;;;3.50;3.40;;;23.60;99.90;;;;;;4880951;29;21030;-72
2021/08/11 16:55:24;;;;;;;3.20;3.10;;;23.50;99.90;;;;;;4883516;29;20831;-71